sensor_id;sensor_type;location;lat;lon;timestamp;P1;durP1;ratioP1;P2;durP2;ratioP2
68947;SDS011;55996;49.546;7.400;2022-08-04T00:05:53;3.53;;;2.17;;
68947;SDS011;55996;49.546;7.400;2022-08-04T00:11:21;3.37;;;2.50;;
68947;SDS011;55996;49.546;7.400;2022-08-04T00:13:53;2.87;;;2.60;;
68947;SDS011;55996;49.546;7.400;2022-08-04T00:16:27;2.40;;;2.20;;
68947;SDS011;55996;49.546;7.400;2022-08-04T00:19:00;2.70;;;2.50;;
68947;SDS011;55996;49.546;7.400;2022-08-04T00:21:27;2.77;;;2.50;;
68947;SDS011;55996;49.546;7.400;2022-08-04T00:23:59;3.53;;;2.53;;
68947;SDS011;55996;49.546;7.400;2022-08-04T00:26:26;2.80;;;2.50;;
68947;SDS011;55996;49.546;7.400;2022-08-04T00:28:51;2.73;;;2.53;;
68947;SDS011;55996;49.546;7.400;2022-08-04T00:31:18;3.37;;;1.93;;
68947;SDS011;55996;49.546;7.400;2022-08-04T00:33:44;4.03;;;2.50;;
68947;SDS011;55996;49.546;7.400;2022-08-04T00:36:11;5.60;;;2.57;;
68947;SDS011;55996;49.546;7.400;2022-08-04T00:38:40;2.93;;;2.20;;
68947;SDS011;55996;49.546;7.400;2022-08-04T00:41:28;2.73;;;2.53;;
68947;SDS011;55996;49.546;7.400;2022-08-04T00:44:16;2.47;;;2.27;;
68947;SDS011;55996;49.546;7.400;2022-08-04T00:52:35;2.70;;;2.50;;
68947;SDS011;55996;49.546;7.400;2022-08-04T01:00:14;2.90;;;2.20;;
68947;SDS011;55996;49.546;7.400;2022-08-04T01:02:53;3.13;;;2.17;;
68947;SDS011;55996;49.546;7.400;2022-08-04T01:11:00;3.13;;;2.60;;
68947;SDS011;55996;49.546;7.400;2022-08-04T01:13:35;3.83;;;2.67;;
68947;SDS011;55996;49.546;7.400;2022-08-04T01:16:20;4.13;;;2.80;;
68947;SDS011;55996;49.546;7.400;2022-08-04T01:18:58;3.57;;;2.27;;
68947;SDS011;55996;49.546;7.400;2022-08-04T01:30:14;2.50;;;2.30;;
68947;SDS011;55996;49.546;7.400;2022-08-04T01:32:45;2.90;;;2.30;;
68947;SDS011;55996;49.546;7.400;2022-08-04T01:35:26;4.20;;;2.30;;
68947;SDS011;55996;49.546;7.400;2022-08-04T01:38:18;3.10;;;2.63;;
68947;SDS011;55996;49.546;7.400;2022-08-04T01:40:54;4.23;;;2.50;;
68947;SDS011;55996;49.546;7.400;2022-08-04T01:43:21;2.50;;;2.30;;
68947;SDS011;55996;49.546;7.400;2022-08-04T01:45:49;2.57;;;2.37;;
68947;SDS011;55996;49.546;7.400;2022-08-04T01:48:15;2.60;;;2.40;;
68947;SDS011;55996;49.546;7.400;2022-08-04T01:50:48;2.80;;;2.60;;
68947;SDS011;55996;49.546;7.400;2022-08-04T01:53:16;3.03;;;2.47;;
68947;SDS011;55996;49.546;7.400;2022-08-04T01:55:44;3.10;;;2.77;;
68947;SDS011;55996;49.546;7.400;2022-08-04T01:58:12;3.03;;;2.50;;
68947;SDS011;55996;49.546;7.400;2022-08-04T02:00:42;3.93;;;2.63;;
68947;SDS011;55996;49.546;7.400;2022-08-04T02:03:19;2.80;;;2.60;;
68947;SDS011;55996;49.546;7.400;2022-08-04T02:05:46;3.00;;;2.60;;
68947;SDS011;55996;49.546;7.400;2022-08-04T02:13:22;3.27;;;2.47;;
68947;SDS011;55996;49.546;7.400;2022-08-04T02:18:36;4.27;;;2.60;;
68947;SDS011;55996;49.546;7.400;2022-08-04T02:21:33;2.90;;;2.70;;
68947;SDS011;55996;49.546;7.400;2022-08-04T02:24:01;3.03;;;2.83;;
68947;SDS011;55996;49.546;7.400;2022-08-04T02:26:33;4.83;;;2.43;;
68947;SDS011;55996;49.546;7.400;2022-08-04T02:32:02;2.53;;;2.33;;
68947;SDS011;55996;49.546;7.400;2022-08-04T02:34:47;2.87;;;2.67;;
68947;SDS011;55996;49.546;7.400;2022-08-04T02:37:20;2.60;;;2.40;;
68947;SDS011;55996;49.546;7.400;2022-08-04T02:39:49;2.60;;;2.40;;
68947;SDS011;55996;49.546;7.400;2022-08-04T02:42:17;2.90;;;2.70;;
68947;SDS011;55996;49.546;7.400;2022-08-04T02:44:50;3.00;;;2.60;;
68947;SDS011;55996;49.546;7.400;2022-08-04T02:47:16;2.63;;;2.43;;
68947;SDS011;55996;49.546;7.400;2022-08-04T02:49:44;3.63;;;2.70;;
68947;SDS011;55996;49.546;7.400;2022-08-04T02:52:11;5.63;;;2.70;;
68947;SDS011;55996;49.546;7.400;2022-08-04T02:54:39;2.80;;;2.60;;
68947;SDS011;55996;49.546;7.400;2022-08-04T02:57:13;2.77;;;2.37;;
68947;SDS011;55996;49.546;7.400;2022-08-04T03:05:57;3.10;;;2.80;;
68947;SDS011;55996;49.546;7.400;2022-08-04T03:31:39;3.83;;;2.97;;
68947;SDS011;55996;49.546;7.400;2022-08-04T03:37:02;3.63;;;2.73;;
68947;SDS011;55996;49.546;7.400;2022-08-04T03:58:31;2.97;;;2.70;;
68947;SDS011;55996;49.546;7.400;2022-08-04T04:01:05;3.27;;;2.47;;
68947;SDS011;55996;49.546;7.400;2022-08-04T04:15:58;3.33;;;3.03;;
68947;SDS011;55996;49.546;7.400;2022-08-04T04:59:30;2.87;;;2.67;;
68947;SDS011;55996;49.546;7.400;2022-08-04T05:15:59;3.90;;;2.90;;
68947;SDS011;55996;49.546;7.400;2022-08-04T05:18:29;3.27;;;2.70;;
68947;SDS011;55996;49.546;7.400;2022-08-04T05:21:23;3.33;;;2.70;;
68947;SDS011;55996;49.546;7.400;2022-08-04T05:23:59;3.57;;;2.93;;
68947;SDS011;55996;49.546;7.400;2022-08-04T05:26:29;2.63;;;2.43;;
68947;SDS011;55996;49.546;7.400;2022-08-04T05:28:57;3.63;;;3.00;;
68947;SDS011;55996;49.546;7.400;2022-08-04T05:31:31;3.47;;;2.50;;
68947;SDS011;55996;49.546;7.400;2022-08-04T05:36:43;4.73;;;2.77;;
68947;SDS011;55996;49.546;7.400;2022-08-04T05:39:22;3.53;;;2.30;;
68947;SDS011;55996;49.546;7.400;2022-08-04T05:41:50;3.00;;;2.47;;
68947;SDS011;55996;49.546;7.400;2022-08-04T05:44:17;3.07;;;2.70;;
68947;SDS011;55996;49.546;7.400;2022-08-04T05:46:46;3.07;;;2.60;;
68947;SDS011;55996;49.546;7.400;2022-08-04T05:49:14;3.17;;;2.87;;
68947;SDS011;55996;49.546;7.400;2022-08-04T05:51:41;2.67;;;2.47;;
68947;SDS011;55996;49.546;7.400;2022-08-04T05:54:08;3.60;;;2.73;;
68947;SDS011;55996;49.546;7.400;2022-08-04T05:56:34;4.20;;;2.70;;
68947;SDS011;55996;49.546;7.400;2022-08-04T05:59:02;3.20;;;2.50;;
68947;SDS011;55996;49.546;7.400;2022-08-04T06:01:29;7.97;;;2.80;;
68947;SDS011;55996;49.546;7.400;2022-08-04T06:03:58;4.47;;;2.72;;
68947;SDS011;55996;49.546;7.400;2022-08-04T06:06:25;3.28;;;2.42;;
68947;SDS011;55996;49.546;7.400;2022-08-04T06:08:53;4.13;;;2.58;;
68947;SDS011;55996;49.546;7.400;2022-08-04T06:11:19;5.80;;;2.40;;
68947;SDS011;55996;49.546;7.400;2022-08-04T06:13:49;4.30;;;2.45;;
68947;SDS011;55996;49.546;7.400;2022-08-04T06:16:22;5.32;;;2.50;;
68947;SDS011;55996;49.546;7.400;2022-08-04T06:18:50;4.55;;;2.60;;
68947;SDS011;55996;49.546;7.400;2022-08-04T06:21:18;5.38;;;2.20;;
68947;SDS011;55996;49.546;7.400;2022-08-04T06:23:45;3.45;;;2.20;;
68947;SDS011;55996;49.546;7.400;2022-08-04T06:26:13;3.17;;;2.40;;
68947;SDS011;55996;49.546;7.400;2022-08-04T06:28:47;4.05;;;2.53;;
68947;SDS011;55996;49.546;7.400;2022-08-04T06:31:18;2.95;;;1.88;;
68947;SDS011;55996;49.546;7.400;2022-08-04T06:34:03;4.28;;;2.03;;
68947;SDS011;55996;49.546;7.400;2022-08-04T06:36:30;2.88;;;2.30;;
68947;SDS011;55996;49.546;7.400;2022-08-04T06:38:59;3.65;;;2.30;;
68947;SDS011;55996;49.546;7.400;2022-08-04T06:41:27;4.13;;;2.50;;
68947;SDS011;55996;49.546;7.400;2022-08-04T06:43:54;4.95;;;2.90;;
68947;SDS011;55996;49.546;7.400;2022-08-04T06:46:24;4.72;;;2.70;;
68947;SDS011;55996;49.546;7.400;2022-08-04T06:48:51;3.40;;;2.72;;
68947;SDS011;55996;49.546;7.400;2022-08-04T06:51:18;4.18;;;2.83;;
68947;SDS011;55996;49.546;7.400;2022-08-04T06:53:46;4.47;;;2.50;;
68947;SDS011;55996;49.546;7.400;2022-08-04T06:56:12;5.88;;;2.67;;
68947;SDS011;55996;49.546;7.400;2022-08-04T06:58:40;5.60;;;2.53;;
68947;SDS011;55996;49.546;7.400;2022-08-04T07:01:07;6.25;;;2.90;;
68947;SDS011;55996;49.546;7.400;2022-08-04T07:03:34;8.95;;;3.53;;
68947;SDS011;55996;49.546;7.400;2022-08-04T07:06:00;7.50;;;3.38;;
68947;SDS011;55996;49.546;7.400;2022-08-04T07:08:27;4.80;;;2.58;;
68947;SDS011;55996;49.546;7.400;2022-08-04T07:10:53;5.40;;;3.00;;
68947;SDS011;55996;49.546;7.400;2022-08-04T07:13:20;7.57;;;3.05;;
68947;SDS011;55996;49.546;7.400;2022-08-04T07:15:46;5.00;;;2.72;;
68947;SDS011;55996;49.546;7.400;2022-08-04T07:18:12;4.78;;;2.55;;
68947;SDS011;55996;49.546;7.400;2022-08-04T07:20:44;3.25;;;2.20;;
68947;SDS011;55996;49.546;7.400;2022-08-04T07:23:11;2.47;;;2.28;;
68947;SDS011;55996;49.546;7.400;2022-08-04T07:25:41;4.45;;;2.38;;
68947;SDS011;55996;49.546;7.400;2022-08-04T07:28:07;2.50;;;2.30;;
68947;SDS011;55996;49.546;7.400;2022-08-04T07:30:33;4.53;;;2.20;;
68947;SDS011;55996;49.546;7.400;2022-08-04T07:32:59;3.47;;;2.58;;
68947;SDS011;55996;49.546;7.400;2022-08-04T07:35:26;3.65;;;2.38;;
68947;SDS011;55996;49.546;7.400;2022-08-04T07:37:53;2.78;;;2.22;;
68947;SDS011;55996;49.546;7.400;2022-08-04T07:40:18;2.30;;;2.10;;
68947;SDS011;55996;49.546;7.400;2022-08-04T07:42:44;2.20;;;2.00;;
68947;SDS011;55996;49.546;7.400;2022-08-04T07:45:10;2.58;;;2.20;;
68947;SDS011;55996;49.546;7.400;2022-08-04T07:47:36;2.30;;;2.10;;
68947;SDS011;55996;49.546;7.400;2022-08-04T07:50:06;3.47;;;2.10;;
68947;SDS011;55996;49.546;7.400;2022-08-04T07:52:33;2.92;;;2.25;;
68947;SDS011;55996;49.546;7.400;2022-08-04T07:55:00;3.00;;;2.30;;
68947;SDS011;55996;49.546;7.400;2022-08-04T07:57:27;3.55;;;2.42;;
68947;SDS011;55996;49.546;7.400;2022-08-04T07:59:52;3.72;;;2.13;;
68947;SDS011;55996;49.546;7.400;2022-08-04T08:02:18;3.65;;;2.33;;
68947;SDS011;55996;49.546;7.400;2022-08-04T08:04:46;4.93;;;2.42;;
68947;SDS011;55996;49.546;7.400;2022-08-04T08:07:12;2.38;;;2.05;;
68947;SDS011;55996;49.546;7.400;2022-08-04T08:09:37;3.35;;;2.30;;
68947;SDS011;55996;49.546;7.400;2022-08-04T08:12:03;4.55;;;2.65;;
68947;SDS011;55996;49.546;7.400;2022-08-04T08:14:31;4.72;;;2.40;;
68947;SDS011;55996;49.546;7.400;2022-08-04T08:16:59;5.68;;;2.33;;
68947;SDS011;55996;49.546;7.400;2022-08-04T08:19:26;9.43;;;2.70;;
68947;SDS011;55996;49.546;7.400;2022-08-04T08:21:52;6.50;;;2.38;;
68947;SDS011;55996;49.546;7.400;2022-08-04T08:24:18;5.00;;;2.38;;
68947;SDS011;55996;49.546;7.400;2022-08-04T08:26:43;4.45;;;2.20;;
68947;SDS011;55996;49.546;7.400;2022-08-04T08:29:09;2.83;;;2.22;;
68947;SDS011;55996;49.546;7.400;2022-08-04T08:31:34;4.18;;;2.20;;
68947;SDS011;55996;49.546;7.400;2022-08-04T08:34:00;1.98;;;1.88;;
68947;SDS011;55996;49.546;7.400;2022-08-04T08:47:41;2.30;;;2.10;;
68947;SDS011;55996;49.546;7.400;2022-08-04T08:56:25;2.70;;;2.22;;
68947;SDS011;55996;49.546;7.400;2022-08-04T08:59:14;2.20;;;2.00;;
68947;SDS011;55996;49.546;7.400;2022-08-04T09:10:19;2.75;;;2.13;;
68947;SDS011;55996;49.546;7.400;2022-08-04T09:18:12;9.73;;;2.42;;
68947;SDS011;55996;49.546;7.400;2022-08-04T09:20:44;3.75;;;2.40;;
68947;SDS011;55996;49.546;7.400;2022-08-04T09:26:03;2.15;;;1.77;;
68947;SDS011;55996;49.546;7.400;2022-08-04T09:28:30;2.60;;;1.88;;
68947;SDS011;55996;49.546;7.400;2022-08-04T09:31:14;2.65;;;2.10;;
68947;SDS011;55996;49.546;7.400;2022-08-04T09:33:48;1.90;;;1.80;;
68947;SDS011;55996;49.546;7.400;2022-08-04T09:36:41;3.00;;;2.00;;
68947;SDS011;55996;49.546;7.400;2022-08-04T09:39:36;4.22;;;2.00;;
68947;SDS011;55996;49.546;7.400;2022-08-04T09:47:59;5.00;;;1.80;;
68947;SDS011;55996;49.546;7.400;2022-08-04T09:50:36;1.70;;;1.60;;
68947;SDS011;55996;49.546;7.400;2022-08-04T09:55:56;2.47;;;1.60;;
68947;SDS011;55996;49.546;7.400;2022-08-04T09:58:38;1.90;;;1.65;;
68947;SDS011;55996;49.546;7.400;2022-08-04T10:01:15;4.00;;;1.60;;
68947;SDS011;55996;49.546;7.400;2022-08-04T10:04:03;2.75;;;1.70;;
68947;SDS011;55996;49.546;7.400;2022-08-04T10:20:27;1.70;;;1.60;;
68947;SDS011;55996;49.546;7.400;2022-08-04T10:23:44;4.13;;;1.60;;
68947;SDS011;55996;49.546;7.400;2022-08-04T10:32:24;2.97;;;1.63;;
68947;SDS011;55996;49.546;7.400;2022-08-04T10:35:38;1.88;;;1.45;;
68947;SDS011;55996;49.546;7.400;2022-08-04T10:38:58;2.25;;;1.73;;
68947;SDS011;55996;49.546;7.400;2022-08-04T10:45:35;1.85;;;1.52;;
68947;SDS011;55996;49.546;7.400;2022-08-04T10:54:12;2.63;;;1.80;;
68947;SDS011;55996;49.546;7.400;2022-08-04T11:00:37;2.60;;;1.83;;
68947;SDS011;55996;49.546;7.400;2022-08-04T11:10:15;3.92;;;1.65;;
68947;SDS011;55996;49.546;7.400;2022-08-04T11:13:20;5.18;;;1.65;;
68947;SDS011;55996;49.546;7.400;2022-08-04T11:16:26;5.72;;;1.73;;
68947;SDS011;55996;49.546;7.400;2022-08-04T11:21:54;2.22;;;1.83;;
68947;SDS011;55996;49.546;7.400;2022-08-04T11:24:29;3.30;;;1.70;;
68947;SDS011;55996;49.546;7.400;2022-08-04T11:27:00;2.03;;;1.65;;
68947;SDS011;55996;49.546;7.400;2022-08-04T11:29:33;1.70;;;1.60;;
68947;SDS011;55996;49.546;7.400;2022-08-04T11:32:16;3.58;;;1.73;;
68947;SDS011;55996;49.546;7.400;2022-08-04T11:34:46;3.08;;;1.48;;
68947;SDS011;55996;49.546;7.400;2022-08-04T11:37:18;1.50;;;1.40;;
68947;SDS011;55996;49.546;7.400;2022-08-04T11:40:03;2.80;;;1.60;;
68947;SDS011;55996;49.546;7.400;2022-08-04T11:42:37;3.70;;;1.40;;
68947;SDS011;55996;49.546;7.400;2022-08-04T11:45:15;2.08;;;1.45;;
68947;SDS011;55996;49.546;7.400;2022-08-04T11:50:52;1.60;;;1.50;;
68947;SDS011;55996;49.546;7.400;2022-08-04T11:53:05;2.30;;;1.42;;
68947;SDS011;55996;49.546;7.400;2022-08-04T11:55:33;3.58;;;1.60;;
68947;SDS011;55996;49.546;7.400;2022-08-04T11:58:01;1.67;;;1.58;;
68947;SDS011;55996;49.546;7.400;2022-08-04T12:00:27;4.45;;;1.50;;
68947;SDS011;55996;49.546;7.400;2022-08-04T12:06:26;2.05;;;1.50;;
68947;SDS011;55996;49.546;7.400;2022-08-04T12:16:49;1.50;;;1.40;;
68947;SDS011;55996;49.546;7.400;2022-08-04T12:19:45;2.15;;;1.40;;
68947;SDS011;55996;49.546;7.400;2022-08-04T12:22:23;1.27;;;1.17;;
68947;SDS011;55996;49.546;7.400;2022-08-04T12:27:35;2.03;;;1.30;;
68947;SDS011;55996;49.546;7.400;2022-08-04T12:30:04;1.45;;;1.35;;
68947;SDS011;55996;49.546;7.400;2022-08-04T12:32:40;1.25;;;1.15;;
68947;SDS011;55996;49.546;7.400;2022-08-04T12:35:19;4.75;;;1.52;;
68947;SDS011;55996;49.546;7.400;2022-08-04T12:37:54;4.75;;;1.25;;
68947;SDS011;55996;49.546;7.400;2022-08-04T12:40:28;3.45;;;1.42;;
68947;SDS011;55996;49.546;7.400;2022-08-04T12:45:55;1.98;;;1.50;;
68947;SDS011;55996;49.546;7.400;2022-08-04T12:48:23;2.70;;;1.42;;
68947;SDS011;55996;49.546;7.400;2022-08-04T12:50:55;1.60;;;1.50;;
68947;SDS011;55996;49.546;7.400;2022-08-04T12:53:55;2.85;;;1.67;;
68947;SDS011;55996;49.546;7.400;2022-08-04T12:56:15;2.42;;;1.50;;
68947;SDS011;55996;49.546;7.400;2022-08-04T12:58:48;2.05;;;1.35;;
68947;SDS011;55996;49.546;7.400;2022-08-04T13:01:21;2.17;;;1.42;;
68947;SDS011;55996;49.546;7.400;2022-08-04T13:03:58;2.03;;;1.58;;
68947;SDS011;55996;49.546;7.400;2022-08-04T13:06:34;2.65;;;1.50;;
68947;SDS011;55996;49.546;7.400;2022-08-04T13:09:05;1.58;;;1.48;;
68947;SDS011;55996;49.546;7.400;2022-08-04T13:11:35;1.42;;;1.33;;
68947;SDS011;55996;49.546;7.400;2022-08-04T13:14:03;2.40;;;1.80;;
68947;SDS011;55996;49.546;7.400;2022-08-04T13:16:32;2.05;;;1.52;;
68947;SDS011;55996;49.546;7.400;2022-08-04T13:18:58;1.50;;;1.40;;
68947;SDS011;55996;49.546;7.400;2022-08-04T13:21:26;2.78;;;1.50;;
68947;SDS011;55996;49.546;7.400;2022-08-04T13:24:03;2.25;;;1.30;;
68947;SDS011;55996;49.546;7.400;2022-08-04T13:26:33;1.52;;;1.40;;
68947;SDS011;55996;49.546;7.400;2022-08-04T13:29:02;1.90;;;1.48;;
68947;SDS011;55996;49.546;7.400;2022-08-04T13:31:31;7.32;;;1.70;;
68947;SDS011;55996;49.546;7.400;2022-08-04T13:34:03;2.08;;;1.52;;
68947;SDS011;55996;49.546;7.400;2022-08-04T13:36:32;3.25;;;1.70;;
68947;SDS011;55996;49.546;7.400;2022-08-04T13:39:07;1.60;;;1.50;;
68947;SDS011;55996;49.546;7.400;2022-08-04T13:41:38;1.55;;;1.45;;
68947;SDS011;55996;49.546;7.400;2022-08-04T13:44:07;5.75;;;1.67;;
68947;SDS011;55996;49.546;7.400;2022-08-04T13:46:40;1.55;;;1.25;;
68947;SDS011;55996;49.546;7.400;2022-08-04T13:49:11;3.65;;;1.88;;
68947;SDS011;55996;49.546;7.400;2022-08-04T13:51:40;1.70;;;1.58;;
68947;SDS011;55996;49.546;7.400;2022-08-04T13:54:10;2.70;;;1.77;;
68947;SDS011;55996;49.546;7.400;2022-08-04T13:56:37;2.47;;;1.83;;
68947;SDS011;55996;49.546;7.400;2022-08-04T13:59:07;3.28;;;1.50;;
68947;SDS011;55996;49.546;7.400;2022-08-04T14:01:35;2.20;;;1.40;;
68947;SDS011;55996;49.546;7.400;2022-08-04T14:06:58;2.67;;;1.60;;
68947;SDS011;55996;49.546;7.400;2022-08-04T14:09:34;1.48;;;1.23;;
68947;SDS011;55996;49.546;7.400;2022-08-04T14:14:34;7.25;;;1.60;;
68947;SDS011;55996;49.546;7.400;2022-08-04T14:17:08;3.65;;;1.60;;
68947;SDS011;55996;49.546;7.400;2022-08-04T14:24:58;2.05;;;1.88;;
68947;SDS011;55996;49.546;7.400;2022-08-04T14:27:29;4.50;;;1.83;;
68947;SDS011;55996;49.546;7.400;2022-08-04T14:30:05;3.05;;;1.50;;
68947;SDS011;55996;49.546;7.400;2022-08-04T14:32:31;2.70;;;1.50;;
68947;SDS011;55996;49.546;7.400;2022-08-04T14:34:57;2.50;;;1.70;;
68947;SDS011;55996;49.546;7.400;2022-08-04T14:37:22;1.50;;;1.40;;
68947;SDS011;55996;49.546;7.400;2022-08-04T14:39:49;3.47;;;1.77;;
68947;SDS011;55996;49.546;7.400;2022-08-04T14:42:18;1.52;;;1.40;;
68947;SDS011;55996;49.546;7.400;2022-08-04T14:45:03;3.65;;;1.40;;
68947;SDS011;55996;49.546;7.400;2022-08-04T14:47:45;2.72;;;1.50;;
68947;SDS011;55996;49.546;7.400;2022-08-04T14:50:12;1.90;;;1.70;;
68947;SDS011;55996;49.546;7.400;2022-08-04T14:52:38;2.35;;;1.80;;
68947;SDS011;55996;49.546;7.400;2022-08-04T14:55:14;2.67;;;1.58;;
68947;SDS011;55996;49.546;7.400;2022-08-04T14:57:40;1.92;;;1.52;;
68947;SDS011;55996;49.546;7.400;2022-08-04T15:00:07;4.13;;;2.03;;
68947;SDS011;55996;49.546;7.400;2022-08-04T15:02:33;2.88;;;1.60;;
68947;SDS011;55996;49.546;7.400;2022-08-04T15:05:00;1.80;;;1.35;;
68947;SDS011;55996;49.546;7.400;2022-08-04T15:07:27;2.45;;;1.52;;
68947;SDS011;55996;49.546;7.400;2022-08-04T15:09:54;5.95;;;1.40;;
68947;SDS011;55996;49.546;7.400;2022-08-04T15:12:20;3.05;;;1.73;;
68947;SDS011;55996;49.546;7.400;2022-08-04T15:14:46;4.57;;;1.85;;
68947;SDS011;55996;49.546;7.400;2022-08-04T15:17:11;2.58;;;1.48;;
68947;SDS011;55996;49.546;7.400;2022-08-04T15:19:37;7.15;;;1.83;;
68947;SDS011;55996;49.546;7.400;2022-08-04T15:22:03;4.78;;;1.63;;
68947;SDS011;55996;49.546;7.400;2022-08-04T15:24:29;3.10;;;1.70;;
68947;SDS011;55996;49.546;7.400;2022-08-04T15:26:55;1.75;;;1.60;;
68947;SDS011;55996;49.546;7.400;2022-08-04T15:29:43;3.22;;;1.55;;
68947;SDS011;55996;49.546;7.400;2022-08-04T15:32:11;3.97;;;1.70;;
68947;SDS011;55996;49.546;7.400;2022-08-04T15:37:26;1.67;;;1.50;;
68947;SDS011;55996;49.546;7.400;2022-08-04T15:40:18;3.50;;;1.73;;
68947;SDS011;55996;49.546;7.400;2022-08-04T15:45:30;1.73;;;1.50;;
68947;SDS011;55996;49.546;7.400;2022-08-04T15:50:58;4.25;;;1.45;;
68947;SDS011;55996;49.546;7.400;2022-08-04T15:53:27;2.53;;;1.55;;
68947;SDS011;55996;49.546;7.400;2022-08-04T15:55:54;2.85;;;1.52;;
68947;SDS011;55996;49.546;7.400;2022-08-04T15:58:21;2.13;;;1.38;;
68947;SDS011;55996;49.546;7.400;2022-08-04T16:11:56;2.25;;;2.05;;
68947;SDS011;55996;49.546;7.400;2022-08-04T16:19:09;2.55;;;1.95;;
68947;SDS011;55996;49.546;7.400;2022-08-04T16:21:56;3.50;;;1.98;;
68947;SDS011;55996;49.546;7.400;2022-08-04T16:24:39;2.42;;;2.22;;
68947;SDS011;55996;49.546;7.400;2022-08-04T16:27:07;3.05;;;2.33;;
68947;SDS011;55996;49.546;7.400;2022-08-04T16:34:44;2.35;;;2.15;;
68947;SDS011;55996;49.546;7.400;2022-08-04T16:37:11;5.32;;;2.15;;
68947;SDS011;55996;49.546;7.400;2022-08-04T16:39:37;6.50;;;4.05;;
68947;SDS011;55996;49.546;7.400;2022-08-04T16:50:20;10.70;;;5.38;;
68947;SDS011;55996;49.546;7.400;2022-08-04T16:52:51;10.55;;;6.03;;
68947;SDS011;55996;49.546;7.400;2022-08-04T16:55:22;6.68;;;3.70;;
68947;SDS011;55996;49.546;7.400;2022-08-04T16:57:50;10.18;;;5.22;;
68947;SDS011;55996;49.546;7.400;2022-08-04T17:00:26;10.75;;;4.57;;
68947;SDS011;55996;49.546;7.400;2022-08-04T17:03:03;13.13;;;6.18;;
68947;SDS011;55996;49.546;7.400;2022-08-04T17:05:29;11.50;;;5.35;;
68947;SDS011;55996;49.546;7.400;2022-08-04T17:07:55;12.18;;;6.03;;
68947;SDS011;55996;49.546;7.400;2022-08-04T17:10:32;10.82;;;5.63;;
68947;SDS011;55996;49.546;7.400;2022-08-04T17:13:18;12.25;;;5.38;;
68947;SDS011;55996;49.546;7.400;2022-08-04T17:15:52;15.70;;;6.05;;
68947;SDS011;55996;49.546;7.400;2022-08-04T17:18:21;10.43;;;4.10;;
68947;SDS011;55996;49.546;7.400;2022-08-04T17:20:48;13.88;;;5.38;;
68947;SDS011;55996;49.546;7.400;2022-08-04T17:23:25;13.35;;;5.28;;
68947;SDS011;55996;49.546;7.400;2022-08-04T17:26:06;10.48;;;5.28;;
68947;SDS011;55996;49.546;7.400;2022-08-04T17:28:32;8.25;;;4.80;;
68947;SDS011;55996;49.546;7.400;2022-08-04T17:31:01;15.18;;;4.75;;
68947;SDS011;55996;49.546;7.400;2022-08-04T17:33:28;11.80;;;5.07;;
68947;SDS011;55996;49.546;7.400;2022-08-04T17:35:58;10.10;;;4.75;;
68947;SDS011;55996;49.546;7.400;2022-08-04T17:38:45;7.45;;;4.15;;
68947;SDS011;55996;49.546;7.400;2022-08-04T17:41:13;9.13;;;4.10;;
68947;SDS011;55996;49.546;7.400;2022-08-04T17:54:11;4.05;;;2.58;;
68947;SDS011;55996;49.546;7.400;2022-08-04T17:56:39;3.83;;;2.30;;
68947;SDS011;55996;49.546;7.400;2022-08-04T18:07:00;5.70;;;2.83;;
68947;SDS011;55996;49.546;7.400;2022-08-04T18:09:34;2.83;;;1.80;;
68947;SDS011;55996;49.546;7.400;2022-08-04T18:12:02;3.47;;;2.08;;
68947;SDS011;55996;49.546;7.400;2022-08-04T18:14:36;3.65;;;1.90;;
68947;SDS011;55996;49.546;7.400;2022-08-04T18:17:09;2.53;;;1.83;;
68947;SDS011;55996;49.546;7.400;2022-08-04T18:19:36;5.13;;;2.03;;
68947;SDS011;55996;49.546;7.400;2022-08-04T18:22:02;2.10;;;1.90;;
68947;SDS011;55996;49.546;7.400;2022-08-04T18:24:30;5.70;;;3.38;;
68947;SDS011;55996;49.546;7.400;2022-08-04T18:26:59;7.68;;;3.45;;
68947;SDS011;55996;49.546;7.400;2022-08-04T18:29:24;8.63;;;3.35;;
68947;SDS011;55996;49.546;7.400;2022-08-04T18:31:50;8.20;;;3.67;;
68947;SDS011;55996;49.546;7.400;2022-08-04T18:34:15;6.53;;;3.45;;
68947;SDS011;55996;49.546;7.400;2022-08-04T18:36:41;5.78;;;3.13;;
68947;SDS011;55996;49.546;7.400;2022-08-04T18:39:08;7.57;;;3.05;;
68947;SDS011;55996;49.546;7.400;2022-08-04T18:41:33;7.50;;;2.92;;
68947;SDS011;55996;49.546;7.400;2022-08-04T18:44:00;7.38;;;3.22;;
68947;SDS011;55996;49.546;7.400;2022-08-04T18:46:25;4.82;;;2.88;;
68947;SDS011;55996;49.546;7.400;2022-08-04T18:48:51;3.95;;;2.50;;
68947;SDS011;55996;49.546;7.400;2022-08-04T18:51:17;3.85;;;2.45;;
68947;SDS011;55996;49.546;7.400;2022-08-04T18:53:45;7.18;;;2.90;;
68947;SDS011;55996;49.546;7.400;2022-08-04T18:56:12;3.83;;;2.10;;
68947;SDS011;55996;49.546;7.400;2022-08-04T18:58:39;2.88;;;2.03;;
68947;SDS011;55996;49.546;7.400;2022-08-04T19:01:05;4.25;;;2.53;;
68947;SDS011;55996;49.546;7.400;2022-08-04T19:03:32;4.70;;;2.35;;
68947;SDS011;55996;49.546;7.400;2022-08-04T19:05:58;7.82;;;2.40;;
68947;SDS011;55996;49.546;7.400;2022-08-04T19:08:24;4.40;;;2.03;;
68947;SDS011;55996;49.546;7.400;2022-08-04T19:10:51;3.88;;;2.20;;
68947;SDS011;55996;49.546;7.400;2022-08-04T19:13:17;4.18;;;2.38;;
68947;SDS011;55996;49.546;7.400;2022-08-04T19:15:42;7.13;;;2.50;;
68947;SDS011;55996;49.546;7.400;2022-08-04T19:18:07;4.10;;;2.40;;
68947;SDS011;55996;49.546;7.400;2022-08-04T19:20:33;3.85;;;2.20;;
68947;SDS011;55996;49.546;7.400;2022-08-04T19:22:58;2.78;;;2.20;;
68947;SDS011;55996;49.546;7.400;2022-08-04T19:25:24;4.20;;;2.30;;
68947;SDS011;55996;49.546;7.400;2022-08-04T19:27:49;3.22;;;2.10;;
68947;SDS011;55996;49.546;7.400;2022-08-04T19:30:15;3.03;;;1.98;;
68947;SDS011;55996;49.546;7.400;2022-08-04T19:32:40;2.95;;;1.70;;
68947;SDS011;55996;49.546;7.400;2022-08-04T19:35:06;4.05;;;2.17;;
68947;SDS011;55996;49.546;7.400;2022-08-04T19:37:31;3.28;;;1.50;;
68947;SDS011;55996;49.546;7.400;2022-08-04T19:39:57;2.58;;;1.73;;
68947;SDS011;55996;49.546;7.400;2022-08-04T19:42:23;2.28;;;1.90;;
68947;SDS011;55996;49.546;7.400;2022-08-04T19:44:48;2.05;;;1.65;;
68947;SDS011;55996;49.546;7.400;2022-08-04T19:47:14;4.80;;;2.08;;
68947;SDS011;55996;49.546;7.400;2022-08-04T19:49:39;3.05;;;1.95;;
68947;SDS011;55996;49.546;7.400;2022-08-04T19:52:05;3.92;;;2.17;;
68947;SDS011;55996;49.546;7.400;2022-08-04T19:54:31;6.07;;;2.40;;
68947;SDS011;55996;49.546;7.400;2022-08-04T19:56:57;1.92;;;1.73;;
68947;SDS011;55996;49.546;7.400;2022-08-04T19:59:22;3.25;;;1.90;;
68947;SDS011;55996;49.546;7.400;2022-08-04T20:01:48;4.07;;;1.90;;
68947;SDS011;55996;49.546;7.400;2022-08-04T20:04:13;3.28;;;2.20;;
68947;SDS011;55996;49.546;7.400;2022-08-04T20:06:39;3.20;;;1.85;;
68947;SDS011;55996;49.546;7.400;2022-08-04T20:09:04;1.92;;;1.80;;
68947;SDS011;55996;49.546;7.400;2022-08-04T20:11:30;5.63;;;2.40;;
68947;SDS011;55996;49.546;7.400;2022-08-04T20:13:55;3.90;;;2.30;;
68947;SDS011;55996;49.546;7.400;2022-08-04T20:16:21;5.57;;;2.58;;
68947;SDS011;55996;49.546;7.400;2022-08-04T20:18:47;3.20;;;2.17;;
68947;SDS011;55996;49.546;7.400;2022-08-04T20:21:13;4.93;;;2.28;;
68947;SDS011;55996;49.546;7.400;2022-08-04T20:23:38;2.60;;;2.17;;
68947;SDS011;55996;49.546;7.400;2022-08-04T20:26:04;5.07;;;2.42;;
68947;SDS011;55996;49.546;7.400;2022-08-04T20:28:29;7.07;;;2.60;;
68947;SDS011;55996;49.546;7.400;2022-08-04T20:30:55;7.20;;;2.67;;
68947;SDS011;55996;49.546;7.400;2022-08-04T20:33:20;2.80;;;2.20;;
68947;SDS011;55996;49.546;7.400;2022-08-04T20:35:47;3.65;;;2.40;;
68947;SDS011;55996;49.546;7.400;2022-08-04T20:38:12;9.35;;;2.63;;
68947;SDS011;55996;49.546;7.400;2022-08-04T20:40:38;7.35;;;2.70;;
68947;SDS011;55996;49.546;7.400;2022-08-04T20:43:03;7.50;;;2.85;;
68947;SDS011;55996;49.546;7.400;2022-08-04T20:45:29;6.45;;;2.50;;
68947;SDS011;55996;49.546;7.400;2022-08-04T20:47:54;8.65;;;2.97;;